sensor_id;sensor_type;location;lat;lon;timestamp;P1;durP1;ratioP1;P2;durP2;ratioP2
25127;SDS011;13107;51.304;6.866;2023-10-09T00:02:50;30.48;;;17.62;;
25127;SDS011;13107;51.304;6.866;2023-10-09T00:06:51;31.75;;;14.60;;
25127;SDS011;13107;51.304;6.866;2023-10-09T00:11:01;22.23;;;13.90;;
25127;SDS011;13107;51.304;6.866;2023-10-09T00:15:17;29.65;;;14.48;;
25127;SDS011;13107;51.304;6.866;2023-10-09T00:19:19;23.98;;;13.55;;
25127;SDS011;13107;51.304;6.866;2023-10-09T00:23:22;26.85;;;13.52;;
25127;SDS011;13107;51.304;6.866;2023-10-09T00:27:26;23.95;;;13.38;;
25127;SDS011;13107;51.304;6.866;2023-10-09T00:31:32;21.10;;;12.73;;
25127;SDS011;13107;51.304;6.866;2023-10-09T00:35:38;28.48;;;13.48;;
25127;SDS011;13107;51.304;6.866;2023-10-09T00:39:46;22.90;;;12.73;;
25127;SDS011;13107;51.304;6.866;2023-10-09T00:43:50;24.25;;;12.37;;
25127;SDS011;13107;51.304;6.866;2023-10-09T00:47:53;24.50;;;12.75;;
25127;SDS011;13107;51.304;6.866;2023-10-09T00:52:00;19.87;;;12.53;;
25127;SDS011;13107;51.304;6.866;2023-10-09T00:56:02;29.55;;;12.30;;
25127;SDS011;13107;51.304;6.866;2023-10-09T01:00:20;22.58;;;12.35;;
25127;SDS011;13107;51.304;6.866;2023-10-09T01:04:34;24.63;;;12.30;;
25127;SDS011;13107;51.304;6.866;2023-10-09T01:12:43;22.40;;;11.52;;
25127;SDS011;13107;51.304;6.866;2023-10-09T01:16:47;16.48;;;10.65;;
25127;SDS011;13107;51.304;6.866;2023-10-09T01:20:49;18.37;;;10.75;;
25127;SDS011;13107;51.304;6.866;2023-10-09T01:24:54;19.95;;;11.80;;
25127;SDS011;13107;51.304;6.866;2023-10-09T01:28:56;21.70;;;10.13;;
25127;SDS011;13107;51.304;6.866;2023-10-09T01:33:00;20.83;;;10.48;;
25127;SDS011;13107;51.304;6.866;2023-10-09T01:37:17;21.48;;;10.93;;
25127;SDS011;13107;51.304;6.866;2023-10-09T01:41:30;15.77;;;9.57;;
25127;SDS011;13107;51.304;6.866;2023-10-09T01:45:35;17.33;;;9.38;;
25127;SDS011;13107;51.304;6.866;2023-10-09T01:49:44;20.37;;;10.02;;
25127;SDS011;13107;51.304;6.866;2023-10-09T01:53:50;18.30;;;10.13;;
25127;SDS011;13107;51.304;6.866;2023-10-09T01:57:58;19.10;;;10.25;;
25127;SDS011;13107;51.304;6.866;2023-10-09T02:02:06;18.55;;;10.48;;
25127;SDS011;13107;51.304;6.866;2023-10-09T02:06:33;18.17;;;10.55;;
25127;SDS011;13107;51.304;6.866;2023-10-09T02:10:39;18.02;;;9.77;;
25127;SDS011;13107;51.304;6.866;2023-10-09T02:14:41;16.58;;;10.05;;
25127;SDS011;13107;51.304;6.866;2023-10-09T02:18:43;18.48;;;9.70;;
25127;SDS011;13107;51.304;6.866;2023-10-09T02:22:54;17.98;;;9.00;;
25127;SDS011;13107;51.304;6.866;2023-10-09T02:26:56;15.20;;;9.43;;
25127;SDS011;13107;51.304;6.866;2023-10-09T02:30:58;18.02;;;9.80;;
25127;SDS011;13107;51.304;6.866;2023-10-09T02:35:03;13.35;;;9.05;;
25127;SDS011;13107;51.304;6.866;2023-10-09T02:39:11;15.38;;;9.15;;
25127;SDS011;13107;51.304;6.866;2023-10-09T02:43:26;12.57;;;8.32;;
25127;SDS011;13107;51.304;6.866;2023-10-09T02:47:28;15.77;;;8.32;;
25127;SDS011;13107;51.304;6.866;2023-10-09T02:51:39;15.57;;;8.65;;
25127;SDS011;13107;51.304;6.866;2023-10-09T02:55:48;15.45;;;8.13;;
25127;SDS011;13107;51.304;6.866;2023-10-09T03:00:09;14.77;;;9.23;;
25127;SDS011;13107;51.304;6.866;2023-10-09T03:04:19;14.15;;;8.13;;
25127;SDS011;13107;51.304;6.866;2023-10-09T03:08:25;13.90;;;8.88;;
25127;SDS011;13107;51.304;6.866;2023-10-09T03:12:28;15.82;;;9.05;;
25127;SDS011;13107;51.304;6.866;2023-10-09T03:16:29;13.52;;;8.20;;
25127;SDS011;13107;51.304;6.866;2023-10-09T03:20:31;13.62;;;8.43;;
25127;SDS011;13107;51.304;6.866;2023-10-09T03:24:33;14.68;;;8.23;;
25127;SDS011;13107;51.304;6.866;2023-10-09T03:28:36;13.15;;;8.15;;
25127;SDS011;13107;51.304;6.866;2023-10-09T03:32:38;12.05;;;8.20;;
25127;SDS011;13107;51.304;6.866;2023-10-09T03:36:39;11.80;;;7.45;;
25127;SDS011;13107;51.304;6.866;2023-10-09T03:40:42;13.18;;;7.87;;
25127;SDS011;13107;51.304;6.866;2023-10-09T03:44:44;12.18;;;7.90;;
25127;SDS011;13107;51.304;6.866;2023-10-09T03:48:53;11.07;;;7.10;;
25127;SDS011;13107;51.304;6.866;2023-10-09T03:52:58;10.55;;;7.57;;
25127;SDS011;13107;51.304;6.866;2023-10-09T03:56:59;13.27;;;8.02;;
25127;SDS011;13107;51.304;6.866;2023-10-09T04:01:06;14.57;;;7.93;;
25127;SDS011;13107;51.304;6.866;2023-10-09T04:09:10;13.25;;;7.30;;
25127;SDS011;13107;51.304;6.866;2023-10-09T04:13:21;13.60;;;7.37;;
25127;SDS011;13107;51.304;6.866;2023-10-09T04:17:34;14.95;;;7.78;;
25127;SDS011;13107;51.304;6.866;2023-10-09T04:21:37;16.08;;;8.07;;
25127;SDS011;13107;51.304;6.866;2023-10-09T04:25:39;14.95;;;8.55;;
25127;SDS011;13107;51.304;6.866;2023-10-09T04:33:51;14.32;;;8.07;;
25127;SDS011;13107;51.304;6.866;2023-10-09T04:38:15;14.10;;;8.75;;
25127;SDS011;13107;51.304;6.866;2023-10-09T04:42:17;15.02;;;9.30;;
25127;SDS011;13107;51.304;6.866;2023-10-09T04:46:25;14.48;;;9.48;;
25127;SDS011;13107;51.304;6.866;2023-10-09T04:50:28;15.32;;;9.15;;
25127;SDS011;13107;51.304;6.866;2023-10-09T04:54:32;15.57;;;10.25;;
25127;SDS011;13107;51.304;6.866;2023-10-09T04:58:41;19.60;;;10.20;;
25127;SDS011;13107;51.304;6.866;2023-10-09T05:02:42;13.70;;;9.57;;
25127;SDS011;13107;51.304;6.866;2023-10-09T05:06:55;18.17;;;9.80;;
25127;SDS011;13107;51.304;6.866;2023-10-09T05:10:58;16.30;;;9.52;;
25127;SDS011;13107;51.304;6.866;2023-10-09T05:15:02;14.20;;;8.45;;
25127;SDS011;13107;51.304;6.866;2023-10-09T05:19:10;17.45;;;9.25;;
25127;SDS011;13107;51.304;6.866;2023-10-09T05:23:32;13.48;;;8.38;;
25127;SDS011;13107;51.304;6.866;2023-10-09T05:27:45;14.18;;;8.68;;
25127;SDS011;13107;51.304;6.866;2023-10-09T05:31:51;15.00;;;8.45;;
25127;SDS011;13107;51.304;6.866;2023-10-09T05:36:12;12.95;;;8.82;;
25127;SDS011;13107;51.304;6.866;2023-10-09T05:40:26;15.40;;;9.23;;
25127;SDS011;13107;51.304;6.866;2023-10-09T05:44:32;15.63;;;9.55;;
25127;SDS011;13107;51.304;6.866;2023-10-09T05:48:46;14.65;;;9.10;;
25127;SDS011;13107;51.304;6.866;2023-10-09T05:52:56;16.75;;;9.25;;
25127;SDS011;13107;51.304;6.866;2023-10-09T05:57:27;14.10;;;9.45;;
25127;SDS011;13107;51.304;6.866;2023-10-09T06:01:48;13.55;;;8.93;;
25127;SDS011;13107;51.304;6.866;2023-10-09T06:06:08;17.40;;;8.70;;
25127;SDS011;13107;51.304;6.866;2023-10-09T06:10:19;14.57;;;9.05;;
25127;SDS011;13107;51.304;6.866;2023-10-09T06:14:38;12.43;;;8.68;;
25127;SDS011;13107;51.304;6.866;2023-10-09T06:18:40;17.17;;;10.85;;
25127;SDS011;13107;51.304;6.866;2023-10-09T06:22:45;17.55;;;11.05;;
25127;SDS011;13107;51.304;6.866;2023-10-09T06:26:59;15.57;;;10.13;;
25127;SDS011;13107;51.304;6.866;2023-10-09T06:31:01;15.23;;;10.18;;
25127;SDS011;13107;51.304;6.866;2023-10-09T06:35:23;12.68;;;9.73;;
25127;SDS011;13107;51.304;6.866;2023-10-09T06:39:34;17.50;;;10.32;;
25127;SDS011;13107;51.304;6.866;2023-10-09T06:43:52;13.50;;;8.75;;
25127;SDS011;13107;51.304;6.866;2023-10-09T06:47:54;15.98;;;10.20;;
25127;SDS011;13107;51.304;6.866;2023-10-09T06:52:11;17.47;;;10.07;;
25127;SDS011;13107;51.304;6.866;2023-10-09T06:56:16;16.05;;;9.60;;
25127;SDS011;13107;51.304;6.866;2023-10-09T07:00:31;13.93;;;8.93;;
25127;SDS011;13107;51.304;6.866;2023-10-09T07:04:51;15.05;;;9.02;;
25127;SDS011;13107;51.304;6.866;2023-10-09T07:08:56;16.80;;;9.27;;
25127;SDS011;13107;51.304;6.866;2023-10-09T07:13:07;12.13;;;8.38;;
25127;SDS011;13107;51.304;6.866;2023-10-09T07:17:10;17.95;;;8.80;;
25127;SDS011;13107;51.304;6.866;2023-10-09T07:21:27;14.93;;;9.10;;
25127;SDS011;13107;51.304;6.866;2023-10-09T07:25:29;14.85;;;9.32;;
25127;SDS011;13107;51.304;6.866;2023-10-09T07:29:51;13.40;;;9.43;;
25127;SDS011;13107;51.304;6.866;2023-10-09T07:33:53;17.50;;;10.30;;
25127;SDS011;13107;51.304;6.866;2023-10-09T07:38:01;16.45;;;9.93;;
25127;SDS011;13107;51.304;6.866;2023-10-09T07:42:04;14.73;;;8.45;;
25127;SDS011;13107;51.304;6.866;2023-10-09T07:46:28;14.05;;;9.07;;
25127;SDS011;13107;51.304;6.866;2023-10-09T07:50:56;19.35;;;8.95;;
25127;SDS011;13107;51.304;6.866;2023-10-09T07:55:01;17.25;;;9.20;;
25127;SDS011;13107;51.304;6.866;2023-10-09T07:59:07;14.48;;;9.30;;
25127;SDS011;13107;51.304;6.866;2023-10-09T08:03:12;13.15;;;8.32;;
25127;SDS011;13107;51.304;6.866;2023-10-09T08:07:25;16.65;;;9.63;;
25127;SDS011;13107;51.304;6.866;2023-10-09T08:11:47;16.33;;;9.38;;
25127;SDS011;13107;51.304;6.866;2023-10-09T08:16:15;13.10;;;8.65;;
25127;SDS011;13107;51.304;6.866;2023-10-09T08:20:29;16.35;;;9.07;;
25127;SDS011;13107;51.304;6.866;2023-10-09T08:24:52;13.55;;;8.73;;
25127;SDS011;13107;51.304;6.866;2023-10-09T08:28:57;18.23;;;9.13;;
25127;SDS011;13107;51.304;6.866;2023-10-09T08:33:19;17.52;;;8.10;;
25127;SDS011;13107;51.304;6.866;2023-10-09T08:37:29;15.88;;;9.05;;
25127;SDS011;13107;51.304;6.866;2023-10-09T08:41:31;15.82;;;8.90;;
25127;SDS011;13107;51.304;6.866;2023-10-09T08:45:33;15.00;;;8.50;;
25127;SDS011;13107;51.304;6.866;2023-10-09T08:49:35;14.77;;;8.60;;
25127;SDS011;13107;51.304;6.866;2023-10-09T08:53:38;16.62;;;9.20;;
25127;SDS011;13107;51.304;6.866;2023-10-09T08:57:44;13.48;;;8.73;;
25127;SDS011;13107;51.304;6.866;2023-10-09T09:01:48;17.42;;;9.20;;
25127;SDS011;13107;51.304;6.866;2023-10-09T09:06:00;15.30;;;8.52;;
25127;SDS011;13107;51.304;6.866;2023-10-09T09:10:03;15.55;;;8.50;;
25127;SDS011;13107;51.304;6.866;2023-10-09T09:14:18;13.20;;;8.35;;
25127;SDS011;13107;51.304;6.866;2023-10-09T09:18:20;15.52;;;8.27;;
25127;SDS011;13107;51.304;6.866;2023-10-09T09:22:22;15.25;;;8.35;;
25127;SDS011;13107;51.304;6.866;2023-10-09T09:26:32;20.00;;;8.48;;
25127;SDS011;13107;51.304;6.866;2023-10-09T09:30:39;16.87;;;8.68;;
25127;SDS011;13107;51.304;6.866;2023-10-09T09:34:49;21.77;;;8.57;;
25127;SDS011;13107;51.304;6.866;2023-10-09T09:39:05;15.98;;;8.88;;
25127;SDS011;13107;51.304;6.866;2023-10-09T09:43:20;14.02;;;8.05;;
25127;SDS011;13107;51.304;6.866;2023-10-09T09:47:23;13.85;;;8.30;;
25127;SDS011;13107;51.304;6.866;2023-10-09T09:51:29;14.85;;;8.18;;
25127;SDS011;13107;51.304;6.866;2023-10-09T09:55:34;13.80;;;8.02;;
25127;SDS011;13107;51.304;6.866;2023-10-09T09:59:43;15.77;;;8.52;;
25127;SDS011;13107;51.304;6.866;2023-10-09T10:03:56;16.00;;;8.80;;
25127;SDS011;13107;51.304;6.866;2023-10-09T10:08:02;13.60;;;8.52;;
25127;SDS011;13107;51.304;6.866;2023-10-09T10:12:09;15.68;;;8.20;;
25127;SDS011;13107;51.304;6.866;2023-10-09T10:16:12;13.98;;;8.70;;
25127;SDS011;13107;51.304;6.866;2023-10-09T10:20:21;18.45;;;8.88;;
25127;SDS011;13107;51.304;6.866;2023-10-09T10:28:31;14.68;;;8.18;;
25127;SDS011;13107;51.304;6.866;2023-10-09T10:36:58;15.50;;;8.45;;
25127;SDS011;13107;51.304;6.866;2023-10-09T10:41:10;15.48;;;8.32;;
25127;SDS011;13107;51.304;6.866;2023-10-09T10:45:20;12.35;;;7.78;;
25127;SDS011;13107;51.304;6.866;2023-10-09T10:49:42;12.80;;;7.82;;
25127;SDS011;13107;51.304;6.866;2023-10-09T10:53:51;15.57;;;8.25;;
25127;SDS011;13107;51.304;6.866;2023-10-09T10:58:14;14.13;;;8.60;;
25127;SDS011;13107;51.304;6.866;2023-10-09T11:02:24;15.05;;;8.30;;
25127;SDS011;13107;51.304;6.866;2023-10-09T11:06:30;13.90;;;8.35;;
25127;SDS011;13107;51.304;6.866;2023-10-09T11:10:38;14.55;;;7.82;;
25127;SDS011;13107;51.304;6.866;2023-10-09T11:14:51;13.20;;;8.38;;
25127;SDS011;13107;51.304;6.866;2023-10-09T11:19:13;13.00;;;8.10;;
25127;SDS011;13107;51.304;6.866;2023-10-09T11:23:46;13.02;;;7.75;;
25127;SDS011;13107;51.304;6.866;2023-10-09T11:27:53;14.60;;;8.68;;
25127;SDS011;13107;51.304;6.866;2023-10-09T11:32:00;23.95;;;8.50;;
25127;SDS011;13107;51.304;6.866;2023-10-09T11:36:06;14.25;;;8.40;;
25127;SDS011;13107;51.304;6.866;2023-10-09T11:44:53;14.38;;;7.95;;
25127;SDS011;13107;51.304;6.866;2023-10-09T11:49:09;18.65;;;10.10;;
25127;SDS011;13107;51.304;6.866;2023-10-09T11:53:17;12.90;;;8.65;;
25127;SDS011;13107;51.304;6.866;2023-10-09T11:57:25;12.95;;;7.68;;
25127;SDS011;13107;51.304;6.866;2023-10-09T12:01:34;15.13;;;8.60;;
25127;SDS011;13107;51.304;6.866;2023-10-09T12:05:38;16.77;;;8.00;;
25127;SDS011;13107;51.304;6.866;2023-10-09T12:09:45;13.52;;;7.78;;
25127;SDS011;13107;51.304;6.866;2023-10-09T12:13:46;13.75;;;8.40;;
25127;SDS011;13107;51.304;6.866;2023-10-09T12:17:48;14.98;;;7.62;;
25127;SDS011;13107;51.304;6.866;2023-10-09T12:21:52;16.15;;;8.18;;
25127;SDS011;13107;51.304;6.866;2023-10-09T12:25:54;13.15;;;7.40;;
25127;SDS011;13107;51.304;6.866;2023-10-09T12:29:58;13.02;;;6.82;;
25127;SDS011;13107;51.304;6.866;2023-10-09T12:34:00;13.52;;;7.20;;
25127;SDS011;13107;51.304;6.866;2023-10-09T12:38:03;12.27;;;7.87;;
25127;SDS011;13107;51.304;6.866;2023-10-09T12:46:13;10.48;;;7.47;;
25127;SDS011;13107;51.304;6.866;2023-10-09T12:50:18;12.52;;;7.47;;
25127;SDS011;13107;51.304;6.866;2023-10-09T12:54:28;16.27;;;7.95;;
25127;SDS011;13107;51.304;6.866;2023-10-09T12:58:32;12.40;;;7.80;;
25127;SDS011;13107;51.304;6.866;2023-10-09T13:02:41;11.65;;;7.07;;
25127;SDS011;13107;51.304;6.866;2023-10-09T13:06:46;14.10;;;7.80;;
25127;SDS011;13107;51.304;6.866;2023-10-09T13:10:48;12.43;;;7.05;;
25127;SDS011;13107;51.304;6.866;2023-10-09T13:15:00;15.13;;;7.78;;
25127;SDS011;13107;51.304;6.866;2023-10-09T13:19:01;11.65;;;6.85;;
25127;SDS011;13107;51.304;6.866;2023-10-09T13:23:10;14.90;;;7.68;;
25127;SDS011;13107;51.304;6.866;2023-10-09T13:27:15;18.85;;;8.35;;
25127;SDS011;13107;51.304;6.866;2023-10-09T13:31:23;14.23;;;9.13;;
25127;SDS011;13107;51.304;6.866;2023-10-09T13:35:29;16.02;;;9.35;;
25127;SDS011;13107;51.304;6.866;2023-10-09T13:39:39;15.18;;;8.73;;
25127;SDS011;13107;51.304;6.866;2023-10-09T13:43:53;20.02;;;9.85;;
25127;SDS011;13107;51.304;6.866;2023-10-09T13:47:56;15.15;;;9.05;;
25127;SDS011;13107;51.304;6.866;2023-10-09T13:51:58;15.05;;;9.70;;
25127;SDS011;13107;51.304;6.866;2023-10-09T13:56:04;18.08;;;9.23;;
25127;SDS011;13107;51.304;6.866;2023-10-09T14:00:15;15.65;;;10.05;;
25127;SDS011;13107;51.304;6.866;2023-10-09T14:04:33;14.50;;;9.23;;
25127;SDS011;13107;51.304;6.866;2023-10-09T14:08:36;20.15;;;11.07;;
25127;SDS011;13107;51.304;6.866;2023-10-09T14:12:43;20.17;;;11.27;;
25127;SDS011;13107;51.304;6.866;2023-10-09T14:16:45;22.27;;;11.88;;
25127;SDS011;13107;51.304;6.866;2023-10-09T14:20:47;15.98;;;11.35;;
25127;SDS011;13107;51.304;6.866;2023-10-09T14:24:51;19.25;;;11.23;;
25127;SDS011;13107;51.304;6.866;2023-10-09T14:28:56;17.73;;;11.45;;
25127;SDS011;13107;51.304;6.866;2023-10-09T14:32:59;20.52;;;11.93;;
25127;SDS011;13107;51.304;6.866;2023-10-09T14:37:03;17.85;;;12.25;;
25127;SDS011;13107;51.304;6.866;2023-10-09T14:41:07;20.65;;;11.55;;
25127;SDS011;13107;51.304;6.866;2023-10-09T14:45:13;20.25;;;12.52;;
25127;SDS011;13107;51.304;6.866;2023-10-09T14:49:17;18.60;;;11.90;;
25127;SDS011;13107;51.304;6.866;2023-10-09T14:53:22;17.58;;;11.00;;
25127;SDS011;13107;51.304;6.866;2023-10-09T14:57:28;20.58;;;10.82;;
25127;SDS011;13107;51.304;6.866;2023-10-09T15:01:34;16.02;;;10.80;;
25127;SDS011;13107;51.304;6.866;2023-10-09T15:05:36;17.62;;;10.82;;
25127;SDS011;13107;51.304;6.866;2023-10-09T15:09:38;18.83;;;10.70;;
25127;SDS011;13107;51.304;6.866;2023-10-09T15:13:42;13.77;;;10.52;;
25127;SDS011;13107;51.304;6.866;2023-10-09T15:17:44;15.52;;;9.43;;
25127;SDS011;13107;51.304;6.866;2023-10-09T15:21:49;20.60;;;11.73;;
25127;SDS011;13107;51.304;6.866;2023-10-09T15:25:51;16.42;;;10.45;;
25127;SDS011;13107;51.304;6.866;2023-10-09T15:29:53;13.55;;;9.43;;
25127;SDS011;13107;51.304;6.866;2023-10-09T15:33:55;16.55;;;10.38;;
25127;SDS011;13107;51.304;6.866;2023-10-09T15:37:57;18.45;;;10.50;;
25127;SDS011;13107;51.304;6.866;2023-10-09T15:42:04;18.90;;;10.70;;
25127;SDS011;13107;51.304;6.866;2023-10-09T15:46:10;20.02;;;12.02;;
25127;SDS011;13107;51.304;6.866;2023-10-09T15:50:15;18.25;;;10.48;;
25127;SDS011;13107;51.304;6.866;2023-10-09T15:54:17;18.00;;;10.48;;
25127;SDS011;13107;51.304;6.866;2023-10-09T15:58:20;20.20;;;11.18;;
25127;SDS011;13107;51.304;6.866;2023-10-09T16:02:22;18.00;;;11.02;;
25127;SDS011;13107;51.304;6.866;2023-10-09T16:06:24;18.50;;;10.70;;
25127;SDS011;13107;51.304;6.866;2023-10-09T16:10:28;17.20;;;9.80;;
25127;SDS011;13107;51.304;6.866;2023-10-09T16:14:32;16.92;;;9.45;;
25127;SDS011;13107;51.304;6.866;2023-10-09T16:18:35;20.35;;;10.48;;
25127;SDS011;13107;51.304;6.866;2023-10-09T16:22:41;20.77;;;10.82;;
25127;SDS011;13107;51.304;6.866;2023-10-09T16:26:46;19.45;;;10.07;;
25127;SDS011;13107;51.304;6.866;2023-10-09T16:30:52;21.17;;;11.00;;
25127;SDS011;13107;51.304;6.866;2023-10-09T16:34:54;22.70;;;11.80;;
25127;SDS011;13107;51.304;6.866;2023-10-09T16:38:56;18.12;;;10.35;;
25127;SDS011;13107;51.304;6.866;2023-10-09T16:43:00;17.40;;;11.32;;
25127;SDS011;13107;51.304;6.866;2023-10-09T16:47:02;17.12;;;10.75;;
25127;SDS011;13107;51.304;6.866;2023-10-09T16:51:08;20.12;;;12.55;;
25127;SDS011;13107;51.304;6.866;2023-10-09T16:55:11;17.85;;;11.25;;
25127;SDS011;13107;51.304;6.866;2023-10-09T16:59:13;17.87;;;10.88;;
25127;SDS011;13107;51.304;6.866;2023-10-09T17:03:18;24.35;;;11.75;;
25127;SDS011;13107;51.304;6.866;2023-10-09T17:07:21;23.70;;;11.50;;
25127;SDS011;13107;51.304;6.866;2023-10-09T17:11:27;14.82;;;9.48;;
25127;SDS011;13107;51.304;6.866;2023-10-09T17:15:35;22.37;;;11.25;;
25127;SDS011;13107;51.304;6.866;2023-10-09T17:19:37;18.80;;;11.30;;
25127;SDS011;13107;51.304;6.866;2023-10-09T17:23:42;16.42;;;10.63;;
25127;SDS011;13107;51.304;6.866;2023-10-09T17:27:48;19.83;;;10.73;;
25127;SDS011;13107;51.304;6.866;2023-10-09T17:31:50;16.83;;;10.73;;
25127;SDS011;13107;51.304;6.866;2023-10-09T17:35:51;14.60;;;9.77;;
25127;SDS011;13107;51.304;6.866;2023-10-09T17:39:54;13.40;;;8.85;;
25127;SDS011;13107;51.304;6.866;2023-10-09T17:43:56;18.35;;;10.55;;
25127;SDS011;13107;51.304;6.866;2023-10-09T17:48:03;17.20;;;10.68;;
25127;SDS011;13107;51.304;6.866;2023-10-09T17:52:09;16.45;;;11.32;;
25127;SDS011;13107;51.304;6.866;2023-10-09T17:56:13;16.05;;;9.90;;
25127;SDS011;13107;51.304;6.866;2023-10-09T18:00:15;18.55;;;11.27;;
25127;SDS011;13107;51.304;6.866;2023-10-09T18:04:23;22.87;;;11.05;;
25127;SDS011;13107;51.304;6.866;2023-10-09T18:08:25;18.12;;;10.75;;
25127;SDS011;13107;51.304;6.866;2023-10-09T18:12:27;18.85;;;10.30;;
25127;SDS011;13107;51.304;6.866;2023-10-09T18:16:29;18.65;;;10.85;;
25127;SDS011;13107;51.304;6.866;2023-10-09T18:20:30;17.02;;;10.35;;
25127;SDS011;13107;51.304;6.866;2023-10-09T18:24:35;18.45;;;10.80;;
25127;SDS011;13107;51.304;6.866;2023-10-09T18:28:42;16.97;;;10.70;;
25127;SDS011;13107;51.304;6.866;2023-10-09T18:32:46;18.73;;;11.00;;
25127;SDS011;13107;51.304;6.866;2023-10-09T18:36:48;15.20;;;11.43;;
25127;SDS011;13107;51.304;6.866;2023-10-09T18:40:50;19.85;;;12.02;;
25127;SDS011;13107;51.304;6.866;2023-10-09T18:44:52;19.73;;;11.32;;
25127;SDS011;13107;51.304;6.866;2023-10-09T18:48:54;25.88;;;11.57;;
25127;SDS011;13107;51.304;6.866;2023-10-09T18:53:01;20.88;;;12.82;;
25127;SDS011;13107;51.304;6.866;2023-10-09T18:57:03;18.73;;;12.63;;
25127;SDS011;13107;51.304;6.866;2023-10-09T19:01:05;28.10;;;12.40;;
25127;SDS011;13107;51.304;6.866;2023-10-09T19:05:14;19.95;;;12.82;;
25127;SDS011;13107;51.304;6.866;2023-10-09T19:09:16;22.30;;;12.20;;
25127;SDS011;13107;51.304;6.866;2023-10-09T19:13:24;22.62;;;13.05;;
25127;SDS011;13107;51.304;6.866;2023-10-09T19:17:27;20.92;;;13.77;;
25127;SDS011;13107;51.304;6.866;2023-10-09T19:21:28;19.48;;;13.32;;
25127;SDS011;13107;51.304;6.866;2023-10-09T19:25:30;24.83;;;13.80;;
25127;SDS011;13107;51.304;6.866;2023-10-09T19:29:34;22.65;;;13.75;;
25127;SDS011;13107;51.304;6.866;2023-10-09T19:33:36;20.27;;;13.25;;
25127;SDS011;13107;51.304;6.866;2023-10-09T19:37:42;23.60;;;14.25;;
25127;SDS011;13107;51.304;6.866;2023-10-09T19:41:48;21.05;;;14.60;;
25127;SDS011;13107;51.304;6.866;2023-10-09T19:45:49;20.60;;;13.48;;
25127;SDS011;13107;51.304;6.866;2023-10-09T19:49:52;21.90;;;13.10;;
25127;SDS011;13107;51.304;6.866;2023-10-09T19:53:54;23.23;;;14.10;;
25127;SDS011;13107;51.304;6.866;2023-10-09T19:57:55;19.20;;;13.30;;
25127;SDS011;13107;51.304;6.866;2023-10-09T20:01:57;20.77;;;12.10;;
25127;SDS011;13107;51.304;6.866;2023-10-09T20:06:03;19.67;;;13.50;;
25127;SDS011;13107;51.304;6.866;2023-10-09T20:10:05;18.30;;;13.15;;
25127;SDS011;13107;51.304;6.866;2023-10-09T20:14:08;24.10;;;13.45;;
25127;SDS011;13107;51.304;6.866;2023-10-09T20:18:10;17.20;;;12.23;;
25127;SDS011;13107;51.304;6.866;2023-10-09T20:22:12;18.67;;;12.57;;
25127;SDS011;13107;51.304;6.866;2023-10-09T20:26:14;20.88;;;12.57;;
25127;SDS011;13107;51.304;6.866;2023-10-09T20:30:17;20.90;;;12.77;;
25127;SDS011;13107;51.304;6.866;2023-10-09T20:34:19;21.58;;;13.40;;
25127;SDS011;13107;51.304;6.866;2023-10-09T20:38:22;20.75;;;12.88;;
25127;SDS011;13107;51.304;6.866;2023-10-09T20:42:23;26.50;;;15.48;;
25127;SDS011;13107;51.304;6.866;2023-10-09T20:46:26;20.55;;;13.93;;
25127;SDS011;13107;51.304;6.866;2023-10-09T20:50:30;23.10;;;15.05;;
25127;SDS011;13107;51.304;6.866;2023-10-09T20:54:32;27.27;;;16.08;;
25127;SDS011;13107;51.304;6.866;2023-10-09T20:58:34;24.85;;;15.35;;
25127;SDS011;13107;51.304;6.866;2023-10-09T21:02:36;19.60;;;13.95;;
25127;SDS011;13107;51.304;6.866;2023-10-09T21:06:38;25.30;;;15.00;;
25127;SDS011;13107;51.304;6.866;2023-10-09T21:10:41;24.63;;;14.95;;
25127;SDS011;13107;51.304;6.866;2023-10-09T21:14:43;21.40;;;15.13;;
25127;SDS011;13107;51.304;6.866;2023-10-09T21:18:45;26.20;;;16.27;;
25127;SDS011;13107;51.304;6.866;2023-10-09T21:22:48;23.35;;;16.42;;
25127;SDS011;13107;51.304;6.866;2023-10-09T21:26:56;27.83;;;16.67;;
25127;SDS011;13107;51.304;6.866;2023-10-09T21:30:58;27.85;;;17.27;;
25127;SDS011;13107;51.304;6.866;2023-10-09T21:35:02;27.35;;;18.58;;
25127;SDS011;13107;51.304;6.866;2023-10-09T21:39:04;25.25;;;16.83;;
25127;SDS011;13107;51.304;6.866;2023-10-09T21:43:09;22.98;;;15.68;;
25127;SDS011;13107;51.304;6.866;2023-10-09T21:47:11;29.73;;;17.40;;
25127;SDS011;13107;51.304;6.866;2023-10-09T21:51:12;25.08;;;16.70;;
25127;SDS011;13107;51.304;6.866;2023-10-09T21:55:18;28.42;;;18.35;;
25127;SDS011;13107;51.304;6.866;2023-10-09T21:59:20;24.73;;;15.85;;
25127;SDS011;13107;51.304;6.866;2023-10-09T22:03:22;26.73;;;18.37;;
25127;SDS011;13107;51.304;6.866;2023-10-09T22:07:28;27.33;;;18.75;;
25127;SDS011;13107;51.304;6.866;2023-10-09T22:11:33;26.58;;;17.83;;
25127;SDS011;13107;51.304;6.866;2023-10-09T22:15:34;31.85;;;19.62;;
25127;SDS011;13107;51.304;6.866;2023-10-09T22:19:37;23.45;;;16.62;;
25127;SDS011;13107;51.304;6.866;2023-10-09T22:23:38;25.80;;;15.45;;
25127;SDS011;13107;51.304;6.866;2023-10-09T22:27:47;26.02;;;17.67;;
25127;SDS011;13107;51.304;6.866;2023-10-09T22:31:52;23.77;;;15.57;;
25127;SDS011;13107;51.304;6.866;2023-10-09T22:35:56;24.35;;;15.82;;
25127;SDS011;13107;51.304;6.866;2023-10-09T22:40:01;21.45;;;14.35;;
25127;SDS011;13107;51.304;6.866;2023-10-09T22:44:06;21.90;;;13.70;;
25127;SDS011;13107;51.304;6.866;2023-10-09T22:48:12;19.08;;;13.05;;
25127;SDS011;13107;51.304;6.866;2023-10-09T22:52:15;21.75;;;14.38;;
25127;SDS011;13107;51.304;6.866;2023-10-09T22:56:24;21.70;;;14.25;;
25127;SDS011;13107;51.304;6.866;2023-10-09T23:00:26;19.17;;;13.35;;
25127;SDS011;13107;51.304;6.866;2023-10-09T23:04:37;28.50;;;14.85;;
25127;SDS011;13107;51.304;6.866;2023-10-09T23:08:39;21.77;;;13.38;;
25127;SDS011;13107;51.304;6.866;2023-10-09T23:12:43;23.35;;;12.75;;
25127;SDS011;13107;51.304;6.866;2023-10-09T23:16:48;17.33;;;11.93;;
25127;SDS011;13107;51.304;6.866;2023-10-09T23:20:57;18.00;;;12.50;;
25127;SDS011;13107;51.304;6.866;2023-10-09T23:25:18;18.73;;;11.60;;
25127;SDS011;13107;51.304;6.866;2023-10-09T23:29:35;19.17;;;12.40;;
25127;SDS011;13107;51.304;6.866;2023-10-09T23:33:36;22.37;;;11.75;;
25127;SDS011;13107;51.304;6.866;2023-10-09T23:37:39;14.90;;;10.27;;
25127;SDS011;13107;51.304;6.866;2023-10-09T23:41:45;18.15;;;11.43;;
25127;SDS011;13107;51.304;6.866;2023-10-09T23:45:59;19.12;;;11.40;;
25127;SDS011;13107;51.304;6.866;2023-10-09T23:50:01;21.50;;;12.48;;
25127;SDS011;13107;51.304;6.866;2023-10-09T23:54:05;20.90;;;11.80;;
25127;SDS011;13107;51.304;6.866;2023-10-09T23:58:12;19.60;;;12.18;;
